Time;durP1;ratioP1;P1;durP2;ratioP2;P2;SDS_P1;SDS_P2;PMS_P1;PMS_P2;Temp;Humidity;BMP_temperature;BMP_pressure;BME280_temperature;BME280_humidity;BME280_pressure;Samples;Min_cycle;Max_cycle;Signal;HPM_P1;HPM_P2
2021/07/28 00:00:58;;;;;;;26.52;22.58;;;16.20;99.90;;;;;;5026784;28;20053;-47
2021/07/28 00:03:24;;;;;;;24.15;20.63;;;16.20;99.90;;;;;;5026327;28;20088;-48
2021/07/28 00:05:50;;;;;;;25.88;21.35;;;16.10;99.90;;;;;;5029038;28;20053;-48
2021/07/28 00:08:17;;;;;;;23.35;20.85;;;16.10;99.90;;;;;;5030118;28;20099;-47
2021/07/28 00:10:45;;;;;;;21.80;19.27;;;16.10;99.90;;;;;;5029484;28;20854;-48
2021/07/28 00:13:12;;;;;;;23.77;21.25;;;16.10;99.90;;;;;;5030680;28;20053;-45
2021/07/28 00:15:38;;;;;;;26.25;21.90;;;16.10;99.90;;;;;;5029791;28;20049;-47
2021/07/28 00:18:12;;;;;;;24.88;20.42;;;16.00;99.90;;;;;;5034302;28;20176;-47
2021/07/28 00:23:15;;;;;;;23.63;21.15;;;16.00;99.90;;;;;;5029630;28;20057;-46
2021/07/28 00:25:42;;;;;;;23.55;21.15;;;16.00;99.90;;;;;;5029833;28;20191;-46
2021/07/28 00:28:09;;;;;;;26.88;22.85;;;15.90;99.90;;;;;;5028825;28;20054;-47
2021/07/28 00:30:35;;;;;;;25.90;21.00;;;15.90;99.90;;;;;;5029530;28;20041;-46
2021/07/28 00:33:02;;;;;;;25.27;21.58;;;15.90;99.90;;;;;;5030072;28;20083;-46
2021/07/28 00:35:28;;;;;;;24.60;21.33;;;15.80;99.90;;;;;;5029624;28;20053;-47
2021/07/28 00:37:56;;;;;;;25.42;22.13;;;15.80;99.90;;;;;;5030014;28;20199;-49
2021/07/28 00:40:22;;;;;;;26.10;22.98;;;15.80;99.90;;;;;;5033068;28;20783;-46
2021/07/28 00:42:49;;;;;;;24.17;21.63;;;15.70;99.90;;;;;;5028583;28;20088;-49
2021/07/28 00:45:17;;;;;;;24.48;21.80;;;15.70;99.90;;;;;;5030400;28;20045;-46
2021/07/28 00:47:46;;;;;;;24.75;21.55;;;15.70;99.90;;;;;;5030047;28;20056;-45
2021/07/28 00:50:13;;;;;;;24.98;21.60;;;15.70;99.90;;;;;;5047322;28;20069;-46
2021/07/28 00:52:48;;;;;;;26.77;22.17;;;15.60;99.90;;;;;;5029912;28;20060;-46
2021/07/28 00:55:14;;;;;;;24.13;21.48;;;15.60;99.90;;;;;;5031018;28;20060;-45
2021/07/28 00:57:43;;;;;;;26.75;22.20;;;15.60;99.90;;;;;;5029910;28;20057;-46
2021/07/28 01:00:10;;;;;;;26.13;21.95;;;15.60;99.90;;;;;;5029509;28;20060;-46
2021/07/28 01:02:36;;;;;;;26.98;22.05;;;15.60;99.90;;;;;;5036260;28;20096;-49
2021/07/28 01:05:04;;;;;;;25.65;21.95;;;15.50;99.90;;;;;;5028978;28;20345;-47
2021/07/28 01:07:32;;;;;;;26.15;21.42;;;15.50;99.90;;;;;;5031192;28;20056;-47
2021/07/28 01:09:59;;;;;;;28.45;23.15;;;15.50;99.90;;;;;;5028638;28;20049;-47
2021/07/28 01:12:31;;;;;;;25.10;20.60;;;15.50;99.90;;;;;;5043812;28;20065;-47
2021/07/28 01:14:58;;;;;;;24.17;20.10;;;15.50;99.90;;;;;;5028473;28;20049;-47
2021/07/28 01:17:24;;;;;;;27.88;21.80;;;15.40;99.90;;;;;;5036079;28;20045;-45
2021/07/28 01:19:57;;;;;;;25.58;20.55;;;15.40;99.90;;;;;;5028646;28;20163;-48
2021/07/28 01:22:23;;;;;;;26.02;20.25;;;15.40;99.90;;;;;;5028586;28;20532;-47
2021/07/28 01:24:50;;;;;;;24.67;20.95;;;15.40;99.90;;;;;;5028463;28;20575;-48
2021/07/28 01:27:17;;;;;;;27.52;21.05;;;15.30;99.90;;;;;;5029210;28;20211;-47
2021/07/28 01:29:43;;;;;;;28.70;21.77;;;15.30;99.90;;;;;;5033061;28;20057;-47
2021/07/28 01:32:13;;;;;;;27.63;22.58;;;15.30;99.90;;;;;;5044048;28;20057;-45
2021/07/28 01:34:39;;;;;;;25.58;20.85;;;15.40;99.90;;;;;;5031834;28;20053;-49
2021/07/28 01:37:07;;;;;;;28.33;21.60;;;15.40;99.90;;;;;;5028702;28;20060;-47
2021/07/28 01:39:34;;;;;;;25.95;22.73;;;15.40;99.90;;;;;;5031315;28;20473;-47
2021/07/28 01:42:04;;;;;;;26.42;21.92;;;15.30;99.90;;;;;;5028653;28;20103;-46
2021/07/28 01:44:32;;;;;;;26.45;21.73;;;15.30;99.90;;;;;;5027962;28;20140;-48
2021/07/28 01:46:58;;;;;;;27.95;23.00;;;15.30;99.90;;;;;;5028209;28;20148;-43
2021/07/28 01:49:25;;;;;;;25.05;19.73;;;15.30;99.90;;;;;;5028591;28;20144;-49
2021/07/28 01:51:51;;;;;;;30.02;22.45;;;15.30;99.90;;;;;;5028074;28;20050;-45
2021/07/28 01:54:17;;;;;;;30.25;23.70;;;15.30;99.90;;;;;;5033415;28;20067;-45
2021/07/28 01:56:43;;;;;;;29.00;22.50;;;15.30;99.90;;;;;;5028201;28;20045;-45
2021/07/28 01:59:13;;;;;;;27.75;22.95;;;15.30;99.90;;;;;;5028163;28;20053;-46
2021/07/28 02:01:40;;;;;;;28.73;22.80;;;15.30;99.90;;;;;;5032776;28;20426;-49
2021/07/28 02:04:06;;;;;;;35.92;24.90;;;15.30;99.90;;;;;;5028461;28;20049;-45
2021/07/28 02:06:33;;;;;;;26.95;22.73;;;15.30;99.90;;;;;;5028234;28;20407;-48
2021/07/28 02:09:01;;;;;;;35.00;23.45;;;15.30;99.90;;;;;;5029335;28;20140;-48
2021/07/28 02:11:28;;;;;;;29.83;22.92;;;15.30;99.90;;;;;;5027875;28;20049;-46
2021/07/28 02:13:54;;;;;;;28.65;22.60;;;15.20;99.90;;;;;;5028483;28;20045;-46
2021/07/28 02:16:20;;;;;;;28.42;22.30;;;15.20;99.90;;;;;;5027604;28;20045;-45
2021/07/28 02:18:47;;;;;;;28.35;23.08;;;15.20;99.90;;;;;;5028862;28;20056;-47
2021/07/28 02:21:14;;;;;;;30.70;23.15;;;15.20;99.90;;;;;;5029550;28;20056;-45
2021/07/28 02:23:42;;;;;;;34.15;24.65;;;15.10;99.90;;;;;;5028068;28;20045;-48
2021/07/28 02:26:08;;;;;;;29.75;22.52;;;15.10;99.90;;;;;;5027883;28;20111;-46
2021/07/28 02:28:34;;;;;;;30.98;24.00;;;15.10;99.90;;;;;;5033796;28;20049;-50
2021/07/28 02:31:01;;;;;;;32.75;24.27;;;15.10;99.90;;;;;;5028574;28;20061;-47
2021/07/28 02:33:27;;;;;;;30.15;23.27;;;15.10;99.90;;;;;;5028053;28;20060;-46
2021/07/28 02:35:53;;;;;;;30.73;24.48;;;15.10;99.90;;;;;;5030416;28;20486;-47
2021/07/28 02:38:19;;;;;;;35.50;25.45;;;15.00;99.90;;;;;;5026311;28;20444;-46
2021/07/28 02:40:48;;;;;;;36.28;24.70;;;15.00;99.90;;;;;;5026306;28;20518;-46
2021/07/28 02:43:14;;;;;;;27.67;23.77;;;15.00;99.90;;;;;;5027864;28;20069;-46
2021/07/28 02:45:40;;;;;;;39.08;25.95;;;15.00;99.90;;;;;;5028509;28;20049;-47
2021/07/28 02:48:07;;;;;;;31.55;24.13;;;14.90;99.90;;;;;;5030251;28;20128;-45
2021/07/28 02:50:35;;;;;;;30.88;24.67;;;14.90;99.90;;;;;;5032233;28;20034;-48
2021/07/28 02:53:02;;;;;;;36.03;25.65;;;14.90;99.90;;;;;;5027239;28;20053;-47
2021/07/28 02:55:30;;;;;;;34.40;26.15;;;14.90;99.90;;;;;;5026957;28;20057;-52
2021/07/28 02:57:57;;;;;;;33.17;23.33;;;14.90;99.90;;;;;;5027541;28;20057;-48
2021/07/28 03:00:25;;;;;;;30.80;24.02;;;14.90;99.90;;;;;;5030156;28;20528;-45
2021/07/28 03:02:52;;;;;;;35.22;25.02;;;14.90;99.90;;;;;;5027149;28;20055;-49
2021/07/28 03:05:19;;;;;;;37.30;25.00;;;14.80;99.90;;;;;;5027351;28;20053;-46
2021/07/28 03:07:47;;;;;;;38.78;26.30;;;14.80;99.90;;;;;;5027612;28;20053;-47
2021/07/28 03:10:13;;;;;;;33.35;25.13;;;14.80;99.90;;;;;;5026795;28;20494;-46
2021/07/28 03:12:40;;;;;;;30.33;23.85;;;14.80;99.90;;;;;;5028510;28;20447;-47
2021/07/28 03:15:07;;;;;;;31.52;24.40;;;14.80;99.90;;;;;;5027079;28;20684;-48
2021/07/28 03:17:33;;;;;;;29.20;24.27;;;14.80;99.90;;;;;;5026715;28;20053;-48
2021/07/28 03:19:59;;;;;;;34.10;24.55;;;14.80;99.90;;;;;;5027386;28;20048;-49
2021/07/28 03:22:28;;;;;;;31.63;23.70;;;14.70;99.90;;;;;;5026935;28;20476;-47
2021/07/28 03:24:55;;;;;;;35.33;24.30;;;14.70;99.90;;;;;;5027576;28;20178;-47
2021/07/28 03:27:24;;;;;;;36.55;25.65;;;14.70;99.90;;;;;;5025996;28;20053;-47
2021/07/28 03:29:50;;;;;;;35.45;25.73;;;14.70;99.90;;;;;;5027096;28;20058;-45
2021/07/28 03:32:16;;;;;;;37.28;26.02;;;14.70;99.90;;;;;;5027102;28;20132;-45
2021/07/28 03:34:42;;;;;;;38.28;26.00;;;14.70;99.90;;;;;;5026388;28;20045;-45
2021/07/28 03:37:09;;;;;;;37.17;26.10;;;14.70;99.90;;;;;;5026596;28;20083;-45
2021/07/28 03:39:37;;;;;;;35.55;25.27;;;14.60;99.90;;;;;;5028835;28;20136;-45
2021/07/28 03:42:04;;;;;;;35.63;25.92;;;14.60;99.90;;;;;;5030437;28;20103;-44
2021/07/28 03:44:30;;;;;;;33.92;24.73;;;14.60;99.90;;;;;;5030664;28;20052;-49
2021/07/28 03:46:56;;;;;;;37.55;26.73;;;14.60;99.90;;;;;;5028732;28;20064;-47
2021/07/28 03:49:23;;;;;;;38.40;27.23;;;14.60;99.90;;;;;;5029812;28;20490;-49
2021/07/28 03:51:49;;;;;;;43.78;27.95;;;14.60;99.90;;;;;;5034744;28;21016;-46
2021/07/28 03:54:15;;;;;;;37.10;26.70;;;14.60;99.90;;;;;;5030244;28;20055;-47
2021/07/28 03:56:41;;;;;;;40.72;27.05;;;14.60;99.90;;;;;;5033320;28;20034;-48
2021/07/28 03:59:13;;;;;;;36.78;25.23;;;14.60;99.90;;;;;;5031654;28;20060;-45
2021/07/28 04:01:39;;;;;;;40.55;27.23;;;14.60;99.90;;;;;;5033236;28;20041;-48
2021/07/28 04:04:06;;;;;;;35.50;26.17;;;14.60;99.90;;;;;;5030536;28;20144;-47
2021/07/28 04:06:32;;;;;;;37.50;26.77;;;14.60;99.90;;;;;;5035855;28;20099;-46
2021/07/28 04:08:59;;;;;;;37.22;27.15;;;14.60;99.90;;;;;;5030261;28;20786;-49
2021/07/28 04:11:27;;;;;;;39.03;27.30;;;14.60;99.90;;;;;;5030149;28;20407;-50
2021/07/28 04:13:53;;;;;;;38.58;26.42;;;14.60;99.90;;;;;;5030390;28;20046;-47
2021/07/28 04:16:20;;;;;;;34.70;25.40;;;14.70;99.90;;;;;;5029849;28;20041;-47
2021/07/28 04:18:46;;;;;;;38.75;27.48;;;14.70;99.90;;;;;;5029943;28;20115;-47
2021/07/28 04:21:15;;;;;;;38.97;26.05;;;14.70;99.90;;;;;;5030078;28;20052;-46
2021/07/28 04:23:46;;;;;;;36.13;26.85;;;14.70;99.90;;;;;;5026907;28;20046;-48
2021/07/28 04:26:13;;;;;;;33.05;25.80;;;14.80;99.90;;;;;;5032439;28;20681;-49
2021/07/28 04:28:39;;;;;;;39.67;27.00;;;14.90;99.90;;;;;;5026590;28;20056;-50
2021/07/28 04:31:06;;;;;;;35.10;26.27;;;15.00;99.90;;;;;;5010979;28;20156;-47
2021/07/28 04:33:34;;;;;;;32.42;24.88;;;15.00;99.90;;;;;;5029668;28;20132;-48
2021/07/28 04:36:00;;;;;;;32.65;25.92;;;15.10;99.90;;;;;;5029529;28;20057;-50
2021/07/28 04:38:27;;;;;;;34.28;24.42;;;15.20;99.90;;;;;;5027838;28;20060;-47
2021/07/28 04:40:55;;;;;;;33.95;25.60;;;15.20;99.90;;;;;;5013645;28;20832;-47
2021/07/28 04:43:25;;;;;;;34.65;24.98;;;15.30;99.90;;;;;;5009794;28;20073;-48
2021/07/28 04:46:04;;;;;;;31.60;24.63;;;15.30;99.90;;;;;;5008381;28;20180;-45
2021/07/28 04:48:30;;;;;;;30.05;24.92;;;15.50;99.90;;;;;;5024606;28;20045;-46
2021/07/28 04:50:58;;;;;;;35.05;26.52;;;15.50;99.90;;;;;;5034975;28;20085;-44
2021/07/28 04:53:30;;;;;;;33.83;26.27;;;15.60;99.90;;;;;;5029148;28;20053;-48
2021/07/28 04:55:58;;;;;;;34.10;26.63;;;15.70;99.90;;;;;;5029062;28;20144;-45
2021/07/28 04:58:25;;;;;;;35.65;25.67;;;16.00;99.90;;;;;;5032209;28;20063;-45
2021/07/28 05:00:52;;;;;;;31.17;23.88;;;16.00;99.90;;;;;;5029485;28;20049;-48
2021/07/28 05:03:19;;;;;;;34.97;28.13;;;16.10;99.90;;;;;;5030042;28;20061;-50
2021/07/28 05:05:45;;;;;;;30.20;25.80;;;16.20;99.90;;;;;;5016794;28;20061;-48
2021/07/28 05:08:12;;;;;;;31.17;26.75;;;16.30;99.90;;;;;;5008625;28;20057;-46
2021/07/28 05:10:38;;;;;;;34.40;26.92;;;16.30;99.90;;;;;;5025797;28;20111;-47
2021/07/28 05:13:04;;;;;;;32.80;28.60;;;16.30;99.90;;;;;;5028812;28;20132;-48
2021/07/28 05:15:31;;;;;;;36.53;29.55;;;16.40;99.90;;;;;;5028143;28;20088;-48
2021/07/28 05:17:57;;;;;;;35.03;29.58;;;16.30;99.90;;;;;;5027648;28;20513;-44
2021/07/28 05:20:24;;;;;;;36.58;31.83;;;16.40;99.90;;;;;;5027125;28;20083;-46
2021/07/28 05:22:51;;;;;;;37.92;30.63;;;16.50;99.90;;;;;;5035866;28;20071;-46
2021/07/28 05:25:18;;;;;;;36.58;30.35;;;16.60;99.90;;;;;;5028863;28;20057;-47
2021/07/28 05:27:47;;;;;;;38.53;32.60;;;16.50;99.90;;;;;;5028231;28;20049;-49
2021/07/28 05:30:14;;;;;;;37.58;31.40;;;16.50;99.90;;;;;;5027841;28;20409;-47
2021/07/28 05:32:40;;;;;;;34.95;31.17;;;16.50;99.90;;;;;;5017085;28;20053;-48
2021/07/28 05:35:09;;;;;;;36.58;31.58;;;16.60;99.90;;;;;;5025972;28;20049;-49
2021/07/28 05:37:37;;;;;;;34.47;30.77;;;16.60;99.90;;;;;;5028142;28;20059;-48
2021/07/28 05:40:06;;;;;;;34.63;30.92;;;16.70;99.90;;;;;;5027704;28;20092;-48
2021/07/28 05:42:36;;;;;;;37.10;31.73;;;16.80;99.90;;;;;;5042929;28;20490;-47
2021/07/28 05:45:05;;;;;;;38.20;32.10;;;16.80;99.90;;;;;;5031305;28;20046;-56
2021/07/28 05:47:37;;;;;;;35.83;31.67;;;16.80;99.90;;;;;;5034039;28;20048;-50
2021/07/28 05:50:03;;;;;;;;;;;16.80;99.90;;;;;;5029214;28;20092;-47
2021/07/28 05:52:29;;;;;;;33.75;29.80;;;16.80;99.90;;;;;;5028462;28;19925;-50
2021/07/28 05:55:01;;;;;;;35.40;31.63;;;16.80;99.90;;;;;;5027019;28;20100;-46
2021/07/28 05:57:27;;;;;;;33.72;30.10;;;16.70;99.90;;;;;;5028654;28;20107;-49
2021/07/28 05:59:53;;;;;;;35.65;30.17;;;16.80;99.90;;;;;;5034169;28;20490;-46
2021/07/28 06:02:20;;;;;;;33.88;30.27;;;16.80;99.90;;;;;;5024521;28;20050;-46
2021/07/28 06:04:46;;;;;;;42.30;37.00;;;16.80;99.90;;;;;;5027061;28;20049;-48
2021/07/28 06:07:13;;;;;;;47.60;42.45;;;16.80;99.90;;;;;;5027127;28;20049;-48
2021/07/28 06:09:40;;;;;;;41.35;36.85;;;16.90;99.90;;;;;;5027748;28;20511;-49
2021/07/28 06:12:10;;;;;;;42.50;37.90;;;16.90;99.90;;;;;;5027988;28;20068;-49
2021/07/28 06:14:36;;;;;;;45.05;38.70;;;16.90;99.90;;;;;;5027597;28;20053;-48
2021/07/28 06:17:05;;;;;;;41.33;36.90;;;17.00;99.90;;;;;;5028266;28;20099;-48
2021/07/28 06:19:35;;;;;;;37.75;33.30;;;17.10;99.90;;;;;;5029651;28;20069;-48
2021/07/28 06:22:02;;;;;;;45.13;40.50;;;17.10;99.90;;;;;;5024399;28;20057;-47
2021/07/28 06:24:28;;;;;;;75.13;66.85;;;17.20;99.90;;;;;;5027425;28;20051;-49
2021/07/28 06:26:57;;;;;;;36.28;31.42;;;17.20;99.90;;;;;;5034376;28;20048;-49
2021/07/28 06:29:27;;;;;;;46.97;41.95;;;17.40;99.90;;;;;;5027054;28;20077;-48
2021/07/28 06:31:54;;;;;;;33.90;30.55;;;17.40;99.90;;;;;;5027065;28;20858;-47
2021/07/28 06:34:20;;;;;;;33.67;30.02;;;17.40;99.90;;;;;;5027447;28;20110;-48
2021/07/28 06:36:48;;;;;;;32.53;29.15;;;17.50;99.90;;;;;;5027601;28;20049;-48
2021/07/28 06:39:14;;;;;;;30.00;27.00;;;17.50;99.90;;;;;;5026014;28;20049;-50
2021/07/28 06:41:43;;;;;;;30.58;27.40;;;17.50;99.90;;;;;;5027009;28;20486;-49
2021/07/28 06:44:09;;;;;;;27.70;24.75;;;17.50;99.90;;;;;;5027630;28;20054;-48
2021/07/28 06:46:42;;;;;;;27.80;24.88;;;17.50;99.90;;;;;;5027292;28;20466;-48
2021/07/28 06:49:13;;;;;;;25.88;23.10;;;17.50;99.90;;;;;;5023949;28;20132;-46
2021/07/28 06:51:39;;;;;;;27.25;23.13;;;17.50;99.90;;;;;;5023921;28;20045;-46
2021/07/28 06:54:10;;;;;;;27.13;24.42;;;17.50;99.90;;;;;;5007782;28;20173;-48
2021/07/28 06:56:39;;;;;;;30.43;27.43;;;17.50;99.90;;;;;;5008277;28;20081;-50
2021/07/28 06:59:05;;;;;;;35.03;31.50;;;17.50;99.90;;;;;;5025728;28;20077;-50
2021/07/28 07:01:34;;;;;;;41.42;37.28;;;17.50;99.90;;;;;;5027812;28;20076;-47
2021/07/28 07:04:03;;;;;;;26.35;23.80;;;17.50;99.90;;;;;;5034477;28;20051;-48
2021/07/28 07:06:29;;;;;;;27.55;24.77;;;17.50;99.90;;;;;;5024183;28;20060;-49
2021/07/28 07:08:58;;;;;;;34.58;30.95;;;17.50;99.90;;;;;;5024272;28;20045;-49
2021/07/28 07:11:26;;;;;;;27.67;24.77;;;17.50;99.90;;;;;;5024522;28;20057;-48
2021/07/28 07:13:53;;;;;;;28.83;26.02;;;17.50;99.90;;;;;;5023349;28;20058;-51
2021/07/28 07:16:19;;;;;;;27.00;24.40;;;17.60;99.90;;;;;;5025611;28;20494;-46
2021/07/28 07:18:45;;;;;;;28.95;26.02;;;17.70;99.90;;;;;;5018442;28;20060;-50
2021/07/28 07:21:11;;;;;;;27.77;24.98;;;17.80;99.90;;;;;;5024078;28;20493;-47
2021/07/28 07:23:40;;;;;;;28.20;23.80;;;18.00;99.90;;;;;;5025750;28;20049;-48
2021/07/28 07:26:09;;;;;;;35.72;32.17;;;18.00;99.90;;;;;;5025945;28;20045;-47
2021/07/28 07:28:35;;;;;;;41.40;37.00;;;18.10;99.90;;;;;;5026531;28;20088;-47
2021/07/28 07:31:02;;;;;;;33.78;30.15;;;18.10;99.90;;;;;;5024865;28;20449;-48
2021/07/28 07:33:40;;;;;;;28.27;24.83;;;18.00;99.90;;;;;;5026922;28;20053;-50
2021/07/28 07:36:07;;;;;;;33.55;30.33;;;18.00;99.90;;;;;;5024782;28;20053;-49
2021/07/28 07:38:34;;;;;;;32.35;28.88;;;18.10;99.90;;;;;;5026599;28;20049;-48
2021/07/28 07:41:01;;;;;;;33.22;29.92;;;18.10;99.90;;;;;;5028517;28;20056;-47
2021/07/28 07:43:27;;;;;;;40.08;35.78;;;18.20;99.90;;;;;;5027236;28;20085;-49
2021/07/28 07:45:55;;;;;;;37.03;33.13;;;18.30;99.90;;;;;;5020612;28;20072;-48
2021/07/28 07:48:27;;;;;;;57.20;51.13;;;18.60;99.90;;;;;;5024495;28;20053;-47
2021/07/28 07:50:54;;;;;;;27.90;24.17;;;19.00;99.90;;;;;;5028756;28;20052;-46
2021/07/28 07:53:23;;;;;;;34.22;30.75;;;19.50;99.90;;;;;;5025552;28;20041;-50
2021/07/28 07:55:54;;;;;;;26.08;23.52;;;19.70;99.90;;;;;;5027377;28;20123;-48
2021/07/28 07:58:20;;;;;;;21.50;19.20;;;20.10;99.90;;;;;;5027414;28;20084;-47
2021/07/28 08:00:47;;;;;;;23.45;21.17;;;20.20;99.90;;;;;;5024991;28;20048;-48
2021/07/28 08:03:15;;;;;;;22.30;20.20;;;20.00;99.90;;;;;;5025365;28;20068;-45
2021/07/28 08:05:44;;;;;;;46.35;41.67;;;19.80;99.90;;;;;;5026020;28;20049;-43
2021/07/28 08:08:13;;;;;;;25.02;22.65;;;19.60;99.90;;;;;;5024686;28;20045;-45
2021/07/28 08:10:43;;;;;;;29.90;26.67;;;19.50;99.90;;;;;;5025066;28;20052;-47
2021/07/28 08:13:11;;;;;;;26.60;23.90;;;19.40;99.90;;;;;;5026040;28;20046;-46
2021/07/28 08:15:42;;;;;;;25.92;23.25;;;19.30;99.90;;;;;;5024213;28;20051;-50
2021/07/28 08:18:11;;;;;;;27.95;25.15;;;19.30;99.90;;;;;;5024291;28;20466;-47
2021/07/28 08:20:40;;;;;;;26.95;23.95;;;19.20;99.90;;;;;;5024292;28;20565;-46
2021/07/28 08:23:06;;;;;;;26.98;24.10;;;19.00;99.90;;;;;;5025032;28;20051;-46
2021/07/28 08:25:37;;;;;;;27.23;24.50;;;19.00;99.90;;;;;;5025531;28;20401;-45
2021/07/28 08:28:09;;;;;;;25.23;22.75;;;19.00;99.90;;;;;;5031798;28;20410;-47
2021/07/28 08:30:37;;;;;;;38.65;34.55;;;18.90;99.90;;;;;;5027790;28;20111;-48
2021/07/28 08:33:04;;;;;;;29.67;26.75;;;19.10;99.90;;;;;;5032057;28;20045;-45
2021/07/28 08:35:50;;;;;;;44.72;40.00;;;19.30;99.90;;;;;;5033662;28;20403;-47
2021/07/28 08:38:20;;;;;;;29.10;26.38;;;19.50;99.90;;;;;;5029167;28;20640;-47
2021/07/28 08:40:55;;;;;;;22.73;20.58;;;20.00;99.90;;;;;;5022606;28;20049;-44
2021/07/28 08:43:36;;;;;;;22.95;20.38;;;20.50;99.90;;;;;;5023795;28;20045;-48
2021/07/28 08:46:06;;;;;;;22.20;18.27;;;20.70;99.90;;;;;;5028003;28;20584;-46
2021/07/28 08:48:34;;;;;;;24.13;21.83;;;21.10;99.90;;;;;;5023998;28;20060;-47
2021/07/28 08:51:02;;;;;;;19.83;17.83;;;20.70;99.90;;;;;;5028768;28;20548;-44
2021/07/28 08:53:33;;;;;;;19.65;17.75;;;20.60;99.90;;;;;;5035203;28;20046;-48
2021/07/28 08:56:02;;;;;;;17.48;15.88;;;20.80;99.90;;;;;;5026909;28;20085;-45
2021/07/28 08:58:31;;;;;;;16.65;15.15;;;21.20;99.90;;;;;;5029913;28;20173;-47
2021/07/28 09:00:57;;;;;;;33.25;30.10;;;21.40;99.90;;;;;;5026819;28;20505;-45
2021/07/28 09:03:24;;;;;;;16.77;15.07;;;21.80;99.90;;;;;;5035090;28;20049;-47
2021/07/28 09:05:53;;;;;;;16.80;15.20;;;21.80;99.90;;;;;;5026777;28;20046;-50
2021/07/28 09:08:31;;;;;;;18.00;16.25;;;21.80;99.90;;;;;;5029752;28;20042;-48
2021/07/28 09:11:03;;;;;;;17.58;15.80;;;21.90;99.90;;;;;;5027621;28;20054;-45
2021/07/28 09:13:40;;;;;;;13.57;12.30;;;21.80;99.90;;;;;;5027383;28;20045;-47
2021/07/28 09:16:11;;;;;;;14.93;12.45;;;21.50;99.90;;;;;;5028130;28;20115;-48
2021/07/28 09:18:46;;;;;;;13.27;11.98;;;21.50;99.90;;;;;;5034638;28;20049;-45
2021/07/28 09:21:25;;;;;;;13.38;12.07;;;21.90;99.90;;;;;;5032987;28;20710;-46
2021/07/28 09:23:56;;;;;;;12.70;11.55;;;22.00;99.90;;;;;;5027989;28;20053;-50
2021/07/28 09:26:30;;;;;;;14.00;12.70;;;22.40;99.90;;;;;;5027553;28;20041;-51
2021/07/28 09:29:09;;;;;;;14.50;13.23;;;22.10;99.90;;;;;;5028567;28;20498;-49
2021/07/28 09:31:42;;;;;;;16.08;14.43;;;21.80;99.90;;;;;;5028529;28;20057;-46
2021/07/28 09:34:28;;;;;;;15.98;14.50;;;21.90;99.90;;;;;;5027882;28;20119;-49
2021/07/28 09:37:04;;;;;;;14.45;13.15;;;22.10;99.90;;;;;;5033243;28;20504;-51
2021/07/28 09:39:41;;;;;;;14.00;12.50;;;23.00;99.90;;;;;;5035359;28;20048;-46
2021/07/28 09:42:13;;;;;;;13.55;12.23;;;23.30;99.90;;;;;;5027534;28;20041;-49
2021/07/28 09:44:45;;;;;;;13.25;11.85;;;22.90;99.90;;;;;;5024201;28;20073;-48
2021/07/28 09:47:11;;;;;;;11.95;10.85;;;22.60;99.90;;;;;;5028067;28;20494;-44
2021/07/28 09:50:02;;;;;;;12.45;11.35;;;22.40;99.90;;;;;;5028549;28;20053;-46
2021/07/28 09:52:33;;;;;;;13.27;12.10;;;22.80;99.90;;;;;;4985144;28;20561;-46
2021/07/28 09:55:28;;;;;;;14.38;13.07;;;23.40;99.90;;;;;;4986066;28;20177;-47
2021/07/28 09:57:56;;;;;;;13.38;11.98;;;23.80;99.50;;;;;;4986286;28;20060;-48
2021/07/28 10:00:24;;;;;;;10.18;9.15;;;24.20;97.20;;;;;;4969664;28;20054;-48
2021/07/28 10:03:05;;;;;;;10.95;9.82;;;24.10;96.70;;;;;;4966271;28;20050;-47
2021/07/28 10:05:32;;;;;;;12.52;11.23;;;23.60;97.80;;;;;;4966590;28;20050;-48
2021/07/28 10:08:06;;;;;;;12.43;10.55;;;23.40;99.90;;;;;;4966290;28;20420;-47
2021/07/28 10:10:35;;;;;;;10.65;9.65;;;23.40;97.70;;;;;;4976411;28;20058;-48
2021/07/28 10:13:02;;;;;;;10.93;9.82;;;23.30;98.60;;;;;;4985585;28;20515;-45
2021/07/28 10:15:29;;;;;;;11.18;10.15;;;23.50;95.40;;;;;;4986493;28;20172;-46
2021/07/28 10:17:57;;;;;;;11.40;10.20;;;23.90;95.20;;;;;;4988748;28;20050;-50
2021/07/28 10:20:25;;;;;;;11.07;9.85;;;24.50;95.00;;;;;;4997717;28;20165;-47
2021/07/28 10:22:52;;;;;;;10.00;9.00;;;24.40;90.00;;;;;;4999901;28;20189;-48
2021/07/28 10:25:21;;;;;;;9.73;8.80;;;24.20;88.60;;;;;;4996458;28;20137;-46
2021/07/28 10:27:49;;;;;;;10.65;9.65;;;23.80;92.00;;;;;;4985592;28;20051;-48
2021/07/28 10:30:21;;;;;;;12.50;11.40;;;23.60;94.90;;;;;;5016947;28;20454;-47
2021/07/28 10:32:50;;;;;;;22.08;20.10;;;23.70;94.90;;;;;;5026864;28;20045;-50
2021/07/28 10:35:24;;;;;;;13.27;12.02;;;23.50;94.80;;;;;;5027436;28;20053;-49
2021/07/28 10:38:18;;;;;;;10.60;9.50;;;23.40;94.00;;;;;;5027684;28;20054;-49
2021/07/28 10:40:49;;;;;;;9.80;8.90;;;23.20;95.00;;;;;;5027870;28;20073;-49
2021/07/28 10:43:15;;;;;;;13.75;12.35;;;23.00;97.30;;;;;;5027880;28;20083;-46
2021/07/28 10:45:56;;;;;;;15.63;14.07;;;22.60;99.40;;;;;;5027154;28;20521;-47
2021/07/28 10:48:41;;;;;;;10.32;9.40;;;22.40;99.90;;;;;;5027816;28;20052;-48
2021/07/28 10:51:07;;;;;;;11.80;10.63;;;22.00;99.80;;;;;;5031648;28;20260;-46
2021/07/28 10:53:46;;;;;;;10.07;8.98;;;21.60;99.90;;;;;;5021629;28;20228;-46
2021/07/28 10:56:15;;;;;;;11.98;10.60;;;21.20;99.90;;;;;;5007927;28;20054;-45
2021/07/28 10:58:44;;;;;;;11.73;10.50;;;21.10;99.90;;;;;;5013352;28;20165;-46
2021/07/28 11:01:13;;;;;;;12.52;11.00;;;21.10;99.90;;;;;;5026920;28;20156;-45
2021/07/28 11:03:39;;;;;;;13.68;12.25;;;21.10;99.90;;;;;;5023529;28;20046;-46
2021/07/28 11:06:17;;;;;;;9.98;8.27;;;21.10;99.90;;;;;;5020400;28;20049;-54
2021/07/28 11:08:43;;;;;;;9.75;8.63;;;21.10;99.90;;;;;;5027785;28;20050;-48
2021/07/28 11:11:20;;;;;;;34.13;30.55;;;21.00;99.90;;;;;;5027701;28;20049;-45
2021/07/28 11:13:47;;;;;;;14.68;13.23;;;20.80;99.90;;;;;;5025876;28;20053;-46
2021/07/28 11:16:15;;;;;;;13.90;12.57;;;20.60;99.90;;;;;;5027459;28;20128;-46
2021/07/28 11:18:45;;;;;;;12.07;10.00;;;20.40;99.90;;;;;;5032518;28;20143;-50
2021/07/28 11:21:14;;;;;;;9.80;8.70;;;20.30;99.90;;;;;;5026770;28;20046;-52
2021/07/28 11:23:45;;;;;;;9.65;8.65;;;20.10;99.90;;;;;;5007836;28;20483;-56
2021/07/28 11:26:18;;;;;;;9.55;7.35;;;19.90;99.90;;;;;;5011643;28;20472;-52
2021/07/28 11:28:46;;;;;;;13.20;8.73;;;19.80;99.90;;;;;;5026905;28;20112;-56
2021/07/28 11:31:12;;;;;;;12.40;8.70;;;19.90;99.90;;;;;;5025845;28;20050;-51
2021/07/28 11:33:39;;;;;;;11.55;8.65;;;20.00;99.90;;;;;;5027125;28;20045;-51
2021/07/28 11:36:06;;;;;;;10.35;8.73;;;20.20;99.90;;;;;;5027539;28;20053;-57
2021/07/28 11:38:39;;;;;;;9.05;8.07;;;20.20;99.90;;;;;;5017935;28;20050;-57
2021/07/28 11:41:09;;;;;;;11.10;8.60;;;20.10;99.90;;;;;;5023485;28;20099;-58
2021/07/28 11:43:41;;;;;;;9.45;8.18;;;20.30;99.90;;;;;;5028721;28;20516;-61
2021/07/28 11:46:16;;;;;;;25.45;22.90;;;20.50;99.90;;;;;;5030596;28;20049;-56
2021/07/28 11:48:46;;;;;;;14.25;12.68;;;20.60;99.90;;;;;;5026914;28;20131;-53
2021/07/28 11:51:31;;;;;;;10.20;8.23;;;20.80;99.90;;;;;;5027653;28;20057;-56
2021/07/28 11:54:17;;;;;;;8.15;7.28;;;20.80;99.90;;;;;;5026281;28;20045;-56
2021/07/28 11:56:49;;;;;;;8.90;6.18;;;20.90;99.90;;;;;;5015899;28;20049;-49
2021/07/28 11:59:25;;;;;;;;;;;21.10;99.90;;;;;;5027242;28;20056;-51
2021/07/28 12:01:56;;;;;;;6.80;5.72;;;21.30;99.90;;;;;;5033746;28;19932;-50
2021/07/28 12:04:27;;;;;;;7.85;5.45;;;21.60;99.90;;;;;;5030492;28;20091;-49
2021/07/28 12:07:00;;;;;;;6.97;5.82;;;22.00;99.90;;;;;;5031227;28;20461;-52
2021/07/28 12:09:28;;;;;;;8.90;6.13;;;22.10;99.90;;;;;;5037708;28;20692;-50
2021/07/28 12:12:06;;;;;;;6.38;5.35;;;22.10;99.90;;;;;;5029213;28;20085;-46
2021/07/28 12:14:41;;;;;;;8.55;5.70;;;22.00;99.90;;;;;;5021589;28;20065;-48
2021/07/28 12:17:13;;;;;;;6.10;5.50;;;21.90;99.90;;;;;;5014423;28;20061;-48
2021/07/28 12:20:02;;;;;;;7.68;5.70;;;21.90;99.90;;;;;;5015877;28;20405;-47
2021/07/28 12:22:42;;;;;;;7.10;5.78;;;21.90;99.90;;;;;;5023611;28;20053;-49
2021/07/28 12:25:22;;;;;;;6.88;5.45;;;22.10;99.90;;;;;;5029178;28;20078;-48
2021/07/28 12:28:01;;;;;;;6.75;4.85;;;22.30;99.90;;;;;;5033792;28;20461;-48
2021/07/28 12:30:39;;;;;;;8.48;6.18;;;22.30;99.90;;;;;;5029817;28;20053;-48
2021/07/28 12:33:13;;;;;;;12.77;5.85;;;22.70;99.90;;;;;;5028380;28;20103;-52
2021/07/28 12:35:47;;;;;;;11.32;8.70;;;22.70;99.90;;;;;;5031369;28;20116;-48
2021/07/28 12:38:22;;;;;;;9.18;5.78;;;22.70;99.90;;;;;;5029550;28;20050;-48
2021/07/28 12:40:55;;;;;;;8.18;6.18;;;22.70;99.90;;;;;;5036291;28;20878;-49
2021/07/28 12:43:23;;;;;;;8.30;6.60;;;22.50;99.90;;;;;;5029533;28;20045;-50